Fort Worth Nas Jrb,Carswell field Fort Worth US
ICAO: KNFW
IATA: NFW
Category: Medium
Scheduled Services: No

Elevation: 650 ft
TransAlt. 18000 ft.

Airport Communications:
RGNL APP/DEP:125.8
NAVY FORT WORTH ARR:128.775
ATIS:27.357
NAVY FORT WORTH GND:126.4
LOCKHEED:28.41
BASE OPS:29.177
PMSV METRO:34.255
NAVY FORT WORTH TWR:120.95

KNFW Zoom In..

If you have problems with the map follow the link
https://www.worldairports.se/pages/airport.php?
ICAO=KNFW

Runways:

(A) RW 17 length 12000 ft width 200 ft
ILS 108.70 / hdg 174

(B) RW 35 length 12000 ft width 200 ft
ILS 109.30 / hdg 354

Location; KNFW
Day. 24 / Time. 10.52 Zulu
* Altimeter: 30.00
* Temperature: 17° c. 62.6°f.
* Wind from: 170° Speed 07 kn.
Dewpoint: 14° c.
Visibility: 10 Statute Miles.
Clouds: Clear (automated report).

KNFW 241052Z AUTO 17007KT 10SM CLR 17/14 A3000 RMK AO2 SLP143 T01670144 VISNO N $


Wind From 170°
Speed 07 kn.

 
 
jpsmedia.com for Web Design worldairports.se 2019   terms of use